sensor_id;sensor_type;location;lat;lon;timestamp;P1;durP1;ratioP1;P2;durP2;ratioP2
24637;SDS011;12773;50.162;8.548;2023-02-28T00:01:57;5.22;;;2.70;;
24637;SDS011;12773;50.162;8.548;2023-02-28T00:04:44;4.83;;;3.20;;
24637;SDS011;12773;50.162;8.548;2023-02-28T00:07:34;4.90;;;2.83;;
24637;SDS011;12773;50.162;8.548;2023-02-28T00:10:23;8.63;;;3.25;;
24637;SDS011;12773;50.162;8.548;2023-02-28T00:13:12;4.92;;;3.27;;
24637;SDS011;12773;50.162;8.548;2023-02-28T00:16:00;5.50;;;3.60;;
24637;SDS011;12773;50.162;8.548;2023-02-28T00:18:49;5.92;;;2.90;;
24637;SDS011;12773;50.162;8.548;2023-02-28T00:21:36;4.70;;;2.98;;
24637;SDS011;12773;50.162;8.548;2023-02-28T00:24:25;4.35;;;3.22;;
24637;SDS011;12773;50.162;8.548;2023-02-28T00:27:12;6.70;;;3.70;;
24637;SDS011;12773;50.162;8.548;2023-02-28T00:30:00;5.85;;;3.40;;
24637;SDS011;12773;50.162;8.548;2023-02-28T00:32:48;6.15;;;4.10;;
24637;SDS011;12773;50.162;8.548;2023-02-28T00:35:36;7.95;;;3.98;;
24637;SDS011;12773;50.162;8.548;2023-02-28T00:38:24;7.75;;;4.00;;
24637;SDS011;12773;50.162;8.548;2023-02-28T00:41:11;8.05;;;4.15;;
24637;SDS011;12773;50.162;8.548;2023-02-28T00:43:58;6.47;;;4.00;;
24637;SDS011;12773;50.162;8.548;2023-02-28T00:46:46;5.28;;;4.00;;
24637;SDS011;12773;50.162;8.548;2023-02-28T00:49:33;6.95;;;4.30;;
24637;SDS011;12773;50.162;8.548;2023-02-28T00:52:20;9.73;;;4.65;;
24637;SDS011;12773;50.162;8.548;2023-02-28T00:55:08;6.87;;;4.67;;
24637;SDS011;12773;50.162;8.548;2023-02-28T00:57:55;6.40;;;4.70;;
24637;SDS011;12773;50.162;8.548;2023-02-28T01:00:42;6.60;;;4.22;;
24637;SDS011;12773;50.162;8.548;2023-02-28T01:03:32;7.53;;;4.45;;
24637;SDS011;12773;50.162;8.548;2023-02-28T01:06:19;6.55;;;4.75;;
24637;SDS011;12773;50.162;8.548;2023-02-28T01:09:06;7.55;;;4.45;;
24637;SDS011;12773;50.162;8.548;2023-02-28T01:11:54;7.62;;;4.62;;
24637;SDS011;12773;50.162;8.548;2023-02-28T01:14:41;6.90;;;4.22;;
24637;SDS011;12773;50.162;8.548;2023-02-28T01:17:28;8.18;;;5.10;;
24637;SDS011;12773;50.162;8.548;2023-02-28T01:20:16;8.30;;;4.70;;
24637;SDS011;12773;50.162;8.548;2023-02-28T01:23:03;8.70;;;4.30;;
24637;SDS011;12773;50.162;8.548;2023-02-28T01:25:51;7.58;;;4.85;;
24637;SDS011;12773;50.162;8.548;2023-02-28T01:28:38;6.45;;;4.45;;
24637;SDS011;12773;50.162;8.548;2023-02-28T01:31:26;8.33;;;4.42;;
24637;SDS011;12773;50.162;8.548;2023-02-28T01:34:14;10.15;;;4.67;;
24637;SDS011;12773;50.162;8.548;2023-02-28T01:37:01;8.30;;;4.78;;
24637;SDS011;12773;50.162;8.548;2023-02-28T01:39:50;7.53;;;4.40;;
24637;SDS011;12773;50.162;8.548;2023-02-28T01:42:41;6.50;;;4.33;;
24637;SDS011;12773;50.162;8.548;2023-02-28T01:45:29;7.33;;;4.33;;
24637;SDS011;12773;50.162;8.548;2023-02-28T01:48:16;7.17;;;4.12;;
24637;SDS011;12773;50.162;8.548;2023-02-28T01:51:08;7.80;;;4.45;;
24637;SDS011;12773;50.162;8.548;2023-02-28T01:54:02;8.43;;;4.10;;
24637;SDS011;12773;50.162;8.548;2023-02-28T01:56:57;6.42;;;4.60;;
24637;SDS011;12773;50.162;8.548;2023-02-28T01:59:42;8.70;;;4.28;;
24637;SDS011;12773;50.162;8.548;2023-02-28T02:02:36;6.83;;;3.98;;
24637;SDS011;12773;50.162;8.548;2023-02-28T02:05:28;5.58;;;4.08;;
24637;SDS011;12773;50.162;8.548;2023-02-28T02:08:23;6.90;;;4.17;;
24637;SDS011;12773;50.162;8.548;2023-02-28T02:11:08;8.20;;;4.50;;
24637;SDS011;12773;50.162;8.548;2023-02-28T02:17:17;8.00;;;4.30;;
24637;SDS011;12773;50.162;8.548;2023-02-28T02:20:16;7.15;;;4.58;;
24637;SDS011;12773;50.162;8.548;2023-02-28T02:36:11;6.40;;;4.30;;
24637;SDS011;12773;50.162;8.548;2023-02-28T02:41:55;6.20;;;3.80;;
24637;SDS011;12773;50.162;8.548;2023-02-28T02:47:45;7.62;;;3.80;;
24637;SDS011;12773;50.162;8.548;2023-02-28T02:50:43;6.22;;;3.58;;
24637;SDS011;12773;50.162;8.548;2023-02-28T02:53:32;6.78;;;4.08;;
24637;SDS011;12773;50.162;8.548;2023-02-28T02:56:23;7.85;;;4.37;;
24637;SDS011;12773;50.162;8.548;2023-02-28T02:59:14;5.72;;;3.60;;
24637;SDS011;12773;50.162;8.548;2023-02-28T03:02:08;5.58;;;3.75;;
24637;SDS011;12773;50.162;8.548;2023-02-28T03:04:58;6.30;;;4.05;;
24637;SDS011;12773;50.162;8.548;2023-02-28T03:07:48;7.42;;;3.75;;
24637;SDS011;12773;50.162;8.548;2023-02-28T03:10:39;7.10;;;4.35;;
24637;SDS011;12773;50.162;8.548;2023-02-28T03:25:54;6.87;;;4.33;;
24637;SDS011;12773;50.162;8.548;2023-02-28T03:28:58;5.50;;;3.87;;
24637;SDS011;12773;50.162;8.548;2023-02-28T03:31:49;5.92;;;4.00;;
24637;SDS011;12773;50.162;8.548;2023-02-28T03:34:39;11.12;;;4.53;;
24637;SDS011;12773;50.162;8.548;2023-02-28T03:37:29;7.80;;;4.17;;
24637;SDS011;12773;50.162;8.548;2023-02-28T03:40:21;6.62;;;4.30;;
24637;SDS011;12773;50.162;8.548;2023-02-28T03:43:12;9.78;;;4.67;;
24637;SDS011;12773;50.162;8.548;2023-02-28T03:46:02;7.58;;;4.30;;
24637;SDS011;12773;50.162;8.548;2023-02-28T03:49:03;6.53;;;4.58;;
24637;SDS011;12773;50.162;8.548;2023-02-28T03:51:46;7.58;;;4.95;;
24637;SDS011;12773;50.162;8.548;2023-02-28T03:54:41;7.42;;;4.12;;
24637;SDS011;12773;50.162;8.548;2023-02-28T04:00:50;9.80;;;4.53;;
24637;SDS011;12773;50.162;8.548;2023-02-28T04:03:39;6.97;;;4.20;;
24637;SDS011;12773;50.162;8.548;2023-02-28T04:06:27;6.37;;;3.67;;
24637;SDS011;12773;50.162;8.548;2023-02-28T04:09:18;7.62;;;4.05;;
24637;SDS011;12773;50.162;8.548;2023-02-28T04:12:05;7.12;;;4.62;;
24637;SDS011;12773;50.162;8.548;2023-02-28T04:14:53;7.05;;;4.10;;
24637;SDS011;12773;50.162;8.548;2023-02-28T04:17:41;6.45;;;4.05;;
24637;SDS011;12773;50.162;8.548;2023-02-28T04:20:28;8.35;;;3.87;;
24637;SDS011;12773;50.162;8.548;2023-02-28T04:23:16;6.75;;;4.15;;
24637;SDS011;12773;50.162;8.548;2023-02-28T04:26:03;6.87;;;3.65;;
24637;SDS011;12773;50.162;8.548;2023-02-28T04:28:51;6.25;;;3.95;;
24637;SDS011;12773;50.162;8.548;2023-02-28T04:31:38;8.38;;;3.90;;
24637;SDS011;12773;50.162;8.548;2023-02-28T04:34:27;6.45;;;3.87;;
24637;SDS011;12773;50.162;8.548;2023-02-28T04:37:15;6.58;;;4.20;;
24637;SDS011;12773;50.162;8.548;2023-02-28T04:40:02;13.65;;;4.10;;
24637;SDS011;12773;50.162;8.548;2023-02-28T04:42:50;5.87;;;3.83;;
24637;SDS011;12773;50.162;8.548;2023-02-28T04:45:38;5.33;;;3.50;;
24637;SDS011;12773;50.162;8.548;2023-02-28T04:48:25;8.35;;;3.60;;
24637;SDS011;12773;50.162;8.548;2023-02-28T04:51:15;9.35;;;3.37;;
24637;SDS011;12773;50.162;8.548;2023-02-28T04:54:05;7.22;;;3.55;;
24637;SDS011;12773;50.162;8.548;2023-02-28T04:56:52;5.53;;;3.67;;
24637;SDS011;12773;50.162;8.548;2023-02-28T04:59:40;5.45;;;3.20;;
24637;SDS011;12773;50.162;8.548;2023-02-28T05:02:29;5.67;;;3.30;;
24637;SDS011;12773;50.162;8.548;2023-02-28T05:05:16;6.30;;;2.70;;
24637;SDS011;12773;50.162;8.548;2023-02-28T05:08:03;6.35;;;3.33;;
24637;SDS011;12773;50.162;8.548;2023-02-28T05:10:51;5.95;;;3.45;;
24637;SDS011;12773;50.162;8.548;2023-02-28T05:13:39;5.05;;;3.12;;
24637;SDS011;12773;50.162;8.548;2023-02-28T05:16:26;4.80;;;3.20;;
24637;SDS011;12773;50.162;8.548;2023-02-28T05:19:14;4.83;;;3.40;;
24637;SDS011;12773;50.162;8.548;2023-02-28T05:22:01;4.30;;;2.98;;
24637;SDS011;12773;50.162;8.548;2023-02-28T05:24:48;6.33;;;3.27;;
24637;SDS011;12773;50.162;8.548;2023-02-28T05:27:36;4.85;;;3.00;;
24637;SDS011;12773;50.162;8.548;2023-02-28T05:30:23;4.83;;;3.27;;
24637;SDS011;12773;50.162;8.548;2023-02-28T05:33:10;5.47;;;2.98;;
24637;SDS011;12773;50.162;8.548;2023-02-28T05:35:58;5.70;;;3.20;;
24637;SDS011;12773;50.162;8.548;2023-02-28T05:38:48;8.15;;;3.20;;
24637;SDS011;12773;50.162;8.548;2023-02-28T05:41:36;5.42;;;3.08;;
24637;SDS011;12773;50.162;8.548;2023-02-28T05:44:24;6.50;;;2.90;;
24637;SDS011;12773;50.162;8.548;2023-02-28T05:47:11;5.35;;;3.10;;
24637;SDS011;12773;50.162;8.548;2023-02-28T05:50:00;6.65;;;3.80;;
24637;SDS011;12773;50.162;8.548;2023-02-28T05:52:51;4.92;;;2.90;;
24637;SDS011;12773;50.162;8.548;2023-02-28T05:55:38;4.78;;;3.12;;
24637;SDS011;12773;50.162;8.548;2023-02-28T05:58:27;4.33;;;2.72;;
24637;SDS011;12773;50.162;8.548;2023-02-28T06:01:37;5.12;;;3.00;;
24637;SDS011;12773;50.162;8.548;2023-02-28T06:04:20;4.10;;;2.77;;
24637;SDS011;12773;50.162;8.548;2023-02-28T06:07:09;9.08;;;3.20;;
24637;SDS011;12773;50.162;8.548;2023-02-28T06:09:57;7.42;;;3.15;;
24637;SDS011;12773;50.162;8.548;2023-02-28T06:12:46;5.08;;;3.17;;
24637;SDS011;12773;50.162;8.548;2023-02-28T06:15:34;6.85;;;3.27;;
24637;SDS011;12773;50.162;8.548;2023-02-28T06:18:21;18.75;;;4.05;;
24637;SDS011;12773;50.162;8.548;2023-02-28T06:21:08;4.40;;;2.95;;
24637;SDS011;12773;50.162;8.548;2023-02-28T06:23:56;6.35;;;3.22;;
24637;SDS011;12773;50.162;8.548;2023-02-28T06:26:44;8.08;;;4.80;;
24637;SDS011;12773;50.162;8.548;2023-02-28T06:29:32;7.33;;;3.80;;
24637;SDS011;12773;50.162;8.548;2023-02-28T06:32:21;5.08;;;3.10;;
24637;SDS011;12773;50.162;8.548;2023-02-28T06:35:08;11.45;;;3.30;;
24637;SDS011;12773;50.162;8.548;2023-02-28T06:37:56;5.00;;;3.27;;
24637;SDS011;12773;50.162;8.548;2023-02-28T06:40:44;5.83;;;3.72;;
24637;SDS011;12773;50.162;8.548;2023-02-28T06:43:35;7.12;;;3.47;;
24637;SDS011;12773;50.162;8.548;2023-02-28T06:46:27;4.92;;;3.27;;
24637;SDS011;12773;50.162;8.548;2023-02-28T06:49:14;5.65;;;3.70;;
24637;SDS011;12773;50.162;8.548;2023-02-28T06:52:01;7.92;;;4.03;;
24637;SDS011;12773;50.162;8.548;2023-02-28T06:54:49;6.35;;;3.55;;
24637;SDS011;12773;50.162;8.548;2023-02-28T06:57:38;7.65;;;3.87;;
24637;SDS011;12773;50.162;8.548;2023-02-28T07:00:25;6.03;;;3.60;;
24637;SDS011;12773;50.162;8.548;2023-02-28T07:03:12;5.72;;;3.42;;
24637;SDS011;12773;50.162;8.548;2023-02-28T07:06:01;11.10;;;3.87;;
24637;SDS011;12773;50.162;8.548;2023-02-28T07:08:50;11.28;;;3.85;;
24637;SDS011;12773;50.162;8.548;2023-02-28T07:11:38;5.85;;;3.80;;
24637;SDS011;12773;50.162;8.548;2023-02-28T07:14:26;7.03;;;4.22;;
24637;SDS011;12773;50.162;8.548;2023-02-28T07:17:13;10.88;;;3.60;;
24637;SDS011;12773;50.162;8.548;2023-02-28T07:20:06;5.65;;;3.55;;
24637;SDS011;12773;50.162;8.548;2023-02-28T07:22:49;7.83;;;4.37;;
24637;SDS011;12773;50.162;8.548;2023-02-28T07:25:38;7.05;;;3.85;;
24637;SDS011;12773;50.162;8.548;2023-02-28T07:28:26;7.30;;;3.80;;
24637;SDS011;12773;50.162;8.548;2023-02-28T07:31:14;7.97;;;4.20;;
24637;SDS011;12773;50.162;8.548;2023-02-28T07:34:01;7.10;;;4.25;;
24637;SDS011;12773;50.162;8.548;2023-02-28T07:36:48;7.97;;;4.20;;
24637;SDS011;12773;50.162;8.548;2023-02-28T07:39:39;8.08;;;4.78;;
24637;SDS011;12773;50.162;8.548;2023-02-28T07:42:29;7.67;;;3.80;;
24637;SDS011;12773;50.162;8.548;2023-02-28T07:45:17;7.58;;;4.10;;
24637;SDS011;12773;50.162;8.548;2023-02-28T07:48:05;9.38;;;4.25;;
24637;SDS011;12773;50.162;8.548;2023-02-28T07:50:54;5.53;;;3.55;;
24637;SDS011;12773;50.162;8.548;2023-02-28T07:53:42;6.95;;;4.37;;
24637;SDS011;12773;50.162;8.548;2023-02-28T07:56:30;6.45;;;3.75;;
24637;SDS011;12773;50.162;8.548;2023-02-28T07:59:17;7.60;;;3.92;;
24637;SDS011;12773;50.162;8.548;2023-02-28T08:02:04;5.60;;;3.33;;
24637;SDS011;12773;50.162;8.548;2023-02-28T08:04:51;7.90;;;4.08;;
24637;SDS011;12773;50.162;8.548;2023-02-28T08:07:39;6.28;;;4.00;;
24637;SDS011;12773;50.162;8.548;2023-02-28T08:10:26;9.73;;;4.25;;
24637;SDS011;12773;50.162;8.548;2023-02-28T08:13:14;7.58;;;4.45;;
24637;SDS011;12773;50.162;8.548;2023-02-28T08:16:01;6.28;;;4.17;;
24637;SDS011;12773;50.162;8.548;2023-02-28T08:18:54;7.75;;;3.90;;
24637;SDS011;12773;50.162;8.548;2023-02-28T08:21:38;12.15;;;4.53;;
24637;SDS011;12773;50.162;8.548;2023-02-28T08:24:25;11.45;;;4.42;;
24637;SDS011;12773;50.162;8.548;2023-02-28T08:27:12;13.00;;;5.05;;
24637;SDS011;12773;50.162;8.548;2023-02-28T08:30:02;9.03;;;4.10;;
24637;SDS011;12773;50.162;8.548;2023-02-28T08:32:49;7.97;;;4.50;;
24637;SDS011;12773;50.162;8.548;2023-02-28T08:35:36;11.95;;;4.78;;
24637;SDS011;12773;50.162;8.548;2023-02-28T08:38:24;8.93;;;4.00;;
24637;SDS011;12773;50.162;8.548;2023-02-28T08:41:12;14.65;;;4.95;;
24637;SDS011;12773;50.162;8.548;2023-02-28T08:43:59;8.28;;;4.15;;
24637;SDS011;12773;50.162;8.548;2023-02-28T08:46:47;8.08;;;4.45;;
24637;SDS011;12773;50.162;8.548;2023-02-28T08:49:34;8.23;;;4.28;;
24637;SDS011;12773;50.162;8.548;2023-02-28T08:52:23;8.98;;;4.47;;
24637;SDS011;12773;50.162;8.548;2023-02-28T08:55:10;7.53;;;4.12;;
24637;SDS011;12773;50.162;8.548;2023-02-28T08:57:57;6.00;;;3.58;;
24637;SDS011;12773;50.162;8.548;2023-02-28T09:00:46;5.95;;;3.90;;
24637;SDS011;12773;50.162;8.548;2023-02-28T09:03:33;12.53;;;3.47;;
24637;SDS011;12773;50.162;8.548;2023-02-28T09:06:21;8.10;;;3.60;;
24637;SDS011;12773;50.162;8.548;2023-02-28T09:09:09;6.80;;;3.72;;
24637;SDS011;12773;50.162;8.548;2023-02-28T09:11:57;6.37;;;3.45;;
24637;SDS011;12773;50.162;8.548;2023-02-28T09:14:44;5.05;;;3.30;;
24637;SDS011;12773;50.162;8.548;2023-02-28T09:17:31;6.55;;;3.30;;
24637;SDS011;12773;50.162;8.548;2023-02-28T09:20:19;7.97;;;3.77;;
24637;SDS011;12773;50.162;8.548;2023-02-28T09:23:07;9.08;;;4.25;;
24637;SDS011;12773;50.162;8.548;2023-02-28T09:25:54;6.47;;;3.72;;
24637;SDS011;12773;50.162;8.548;2023-02-28T09:28:41;6.30;;;3.65;;
24637;SDS011;12773;50.162;8.548;2023-02-28T09:31:29;7.92;;;3.80;;
24637;SDS011;12773;50.162;8.548;2023-02-28T09:34:16;5.25;;;3.40;;
24637;SDS011;12773;50.162;8.548;2023-02-28T09:37:04;8.38;;;3.80;;
24637;SDS011;12773;50.162;8.548;2023-02-28T09:39:51;5.72;;;3.55;;
24637;SDS011;12773;50.162;8.548;2023-02-28T09:42:38;7.22;;;3.95;;
24637;SDS011;12773;50.162;8.548;2023-02-28T09:45:30;7.22;;;4.05;;
24637;SDS011;12773;50.162;8.548;2023-02-28T09:48:23;5.58;;;3.87;;
24637;SDS011;12773;50.162;8.548;2023-02-28T09:51:28;8.77;;;3.87;;
24637;SDS011;12773;50.162;8.548;2023-02-28T09:54:23;5.67;;;3.65;;
24637;SDS011;12773;50.162;8.548;2023-02-28T10:00:29;7.75;;;3.85;;
24637;SDS011;12773;50.162;8.548;2023-02-28T10:03:30;6.45;;;3.98;;
24637;SDS011;12773;50.162;8.548;2023-02-28T10:06:28;8.00;;;3.72;;
24637;SDS011;12773;50.162;8.548;2023-02-28T10:09:22;6.65;;;3.75;;
24637;SDS011;12773;50.162;8.548;2023-02-28T10:12:11;6.42;;;3.62;;
24637;SDS011;12773;50.162;8.548;2023-02-28T10:14:59;7.28;;;3.98;;
24637;SDS011;12773;50.162;8.548;2023-02-28T10:17:48;6.83;;;3.72;;
24637;SDS011;12773;50.162;8.548;2023-02-28T10:20:40;5.87;;;3.55;;
24637;SDS011;12773;50.162;8.548;2023-02-28T10:23:31;6.80;;;4.00;;
24637;SDS011;12773;50.162;8.548;2023-02-28T10:26:19;6.53;;;4.00;;
24637;SDS011;12773;50.162;8.548;2023-02-28T10:29:07;18.75;;;4.00;;
24637;SDS011;12773;50.162;8.548;2023-02-28T10:31:55;5.55;;;4.12;;
24637;SDS011;12773;50.162;8.548;2023-02-28T10:34:43;7.78;;;4.28;;
24637;SDS011;12773;50.162;8.548;2023-02-28T10:37:31;6.17;;;4.08;;
24637;SDS011;12773;50.162;8.548;2023-02-28T10:49:02;5.70;;;4.20;;
24637;SDS011;12773;50.162;8.548;2023-02-28T10:51:54;7.00;;;4.20;;
24637;SDS011;12773;50.162;8.548;2023-02-28T10:54:38;7.30;;;3.77;;
24637;SDS011;12773;50.162;8.548;2023-02-28T10:57:26;7.10;;;4.67;;
24637;SDS011;12773;50.162;8.548;2023-02-28T11:00:19;6.47;;;4.03;;
24637;SDS011;12773;50.162;8.548;2023-02-28T11:03:21;8.50;;;4.47;;
24637;SDS011;12773;50.162;8.548;2023-02-28T11:05:58;5.95;;;3.95;;
24637;SDS011;12773;50.162;8.548;2023-02-28T11:08:49;7.75;;;3.92;;
24637;SDS011;12773;50.162;8.548;2023-02-28T11:11:42;7.05;;;3.70;;
24637;SDS011;12773;50.162;8.548;2023-02-28T11:14:32;6.90;;;4.22;;
24637;SDS011;12773;50.162;8.548;2023-02-28T11:17:23;6.92;;;3.80;;
24637;SDS011;12773;50.162;8.548;2023-02-28T11:20:18;6.30;;;4.30;;
24637;SDS011;12773;50.162;8.548;2023-02-28T11:23:02;7.35;;;4.65;;
24637;SDS011;12773;50.162;8.548;2023-02-28T11:25:52;7.00;;;4.40;;
24637;SDS011;12773;50.162;8.548;2023-02-28T11:28:42;4.65;;;3.60;;
24637;SDS011;12773;50.162;8.548;2023-02-28T11:31:29;6.70;;;4.40;;
24637;SDS011;12773;50.162;8.548;2023-02-28T11:34:25;6.25;;;4.25;;
24637;SDS011;12773;50.162;8.548;2023-02-28T11:37:14;7.97;;;3.92;;
24637;SDS011;12773;50.162;8.548;2023-02-28T11:40:05;6.75;;;4.20;;
24637;SDS011;12773;50.162;8.548;2023-02-28T11:46:13;9.63;;;4.28;;
24637;SDS011;12773;50.162;8.548;2023-02-28T11:48:58;7.33;;;4.60;;
24637;SDS011;12773;50.162;8.548;2023-02-28T12:07:35;5.05;;;3.58;;
24637;SDS011;12773;50.162;8.548;2023-02-28T12:10:25;7.17;;;3.85;;
24637;SDS011;12773;50.162;8.548;2023-02-28T12:13:21;6.28;;;4.25;;
24637;SDS011;12773;50.162;8.548;2023-02-28T12:19:34;9.65;;;5.17;;
24637;SDS011;12773;50.162;8.548;2023-02-28T12:22:27;6.35;;;4.47;;
24637;SDS011;12773;50.162;8.548;2023-02-28T12:31:28;7.95;;;4.70;;
24637;SDS011;12773;50.162;8.548;2023-02-28T12:34:18;7.80;;;5.08;;
24637;SDS011;12773;50.162;8.548;2023-02-28T12:37:14;8.53;;;4.70;;
24637;SDS011;12773;50.162;8.548;2023-02-28T12:40:19;6.80;;;4.60;;
24637;SDS011;12773;50.162;8.548;2023-02-28T12:43:05;7.47;;;4.70;;
24637;SDS011;12773;50.162;8.548;2023-02-28T12:46:08;6.83;;;4.53;;
24637;SDS011;12773;50.162;8.548;2023-02-28T12:49:08;9.30;;;5.17;;
24637;SDS011;12773;50.162;8.548;2023-02-28T12:51:56;6.80;;;4.25;;
24637;SDS011;12773;50.162;8.548;2023-02-28T12:57:48;7.03;;;4.42;;
24637;SDS011;12773;50.162;8.548;2023-02-28T13:00:34;10.82;;;4.90;;
24637;SDS011;12773;50.162;8.548;2023-02-28T13:10:02;7.75;;;4.75;;
24637;SDS011;12773;50.162;8.548;2023-02-28T13:12:52;7.45;;;5.20;;
24637;SDS011;12773;50.162;8.548;2023-02-28T13:15:56;8.13;;;5.00;;
24637;SDS011;12773;50.162;8.548;2023-02-28T13:18:46;8.30;;;4.97;;
24637;SDS011;12773;50.162;8.548;2023-02-28T13:21:41;7.62;;;4.80;;
24637;SDS011;12773;50.162;8.548;2023-02-28T13:27:37;6.87;;;4.50;;
24637;SDS011;12773;50.162;8.548;2023-02-28T13:36:43;10.93;;;4.53;;
24637;SDS011;12773;50.162;8.548;2023-02-28T13:42:32;8.05;;;5.12;;
24637;SDS011;12773;50.162;8.548;2023-02-28T13:45:28;7.53;;;4.95;;
24637;SDS011;12773;50.162;8.548;2023-02-28T13:48:18;8.68;;;5.20;;
24637;SDS011;12773;50.162;8.548;2023-02-28T13:57:48;6.30;;;4.30;;
24637;SDS011;12773;50.162;8.548;2023-02-28T14:00:45;8.70;;;4.60;;
24637;SDS011;12773;50.162;8.548;2023-02-28T14:06:53;6.97;;;4.65;;
24637;SDS011;12773;50.162;8.548;2023-02-28T14:09:45;6.50;;;4.28;;
24637;SDS011;12773;50.162;8.548;2023-02-28T14:15:59;7.97;;;4.65;;
24637;SDS011;12773;50.162;8.548;2023-02-28T14:18:56;7.58;;;5.35;;
24637;SDS011;12773;50.162;8.548;2023-02-28T14:22:02;7.58;;;4.78;;
24637;SDS011;12773;50.162;8.548;2023-02-28T14:28:18;7.28;;;4.40;;
24637;SDS011;12773;50.162;8.548;2023-02-28T14:31:42;12.00;;;5.40;;
24637;SDS011;12773;50.162;8.548;2023-02-28T14:37:22;8.63;;;4.85;;
24637;SDS011;12773;50.162;8.548;2023-02-28T14:40:19;8.25;;;4.72;;
24637;SDS011;12773;50.162;8.548;2023-02-28T14:43:19;9.38;;;4.70;;
24637;SDS011;12773;50.162;8.548;2023-02-28T14:46:10;8.63;;;4.83;;
24637;SDS011;12773;50.162;8.548;2023-02-28T14:48:58;11.00;;;4.95;;
24637;SDS011;12773;50.162;8.548;2023-02-28T14:51:47;9.90;;;4.53;;
24637;SDS011;12773;50.162;8.548;2023-02-28T14:54:39;7.35;;;4.92;;
24637;SDS011;12773;50.162;8.548;2023-02-28T14:57:28;8.53;;;5.30;;
24637;SDS011;12773;50.162;8.548;2023-02-28T15:00:36;12.43;;;5.42;;
24637;SDS011;12773;50.162;8.548;2023-02-28T15:03:20;9.63;;;4.87;;
24637;SDS011;12773;50.162;8.548;2023-02-28T15:06:13;10.05;;;5.47;;
24637;SDS011;12773;50.162;8.548;2023-02-28T15:09:13;7.85;;;4.75;;
24637;SDS011;12773;50.162;8.548;2023-02-28T15:11:56;8.08;;;5.00;;
24637;SDS011;12773;50.162;8.548;2023-02-28T15:14:43;9.20;;;5.12;;
24637;SDS011;12773;50.162;8.548;2023-02-28T15:17:31;7.85;;;5.20;;
24637;SDS011;12773;50.162;8.548;2023-02-28T15:20:19;11.70;;;5.80;;
24637;SDS011;12773;50.162;8.548;2023-02-28T15:23:06;7.45;;;4.85;;
24637;SDS011;12773;50.162;8.548;2023-02-28T15:25:54;8.93;;;5.08;;
24637;SDS011;12773;50.162;8.548;2023-02-28T15:28:42;9.05;;;4.70;;
24637;SDS011;12773;50.162;8.548;2023-02-28T15:31:40;8.83;;;5.05;;
24637;SDS011;12773;50.162;8.548;2023-02-28T15:34:34;9.60;;;4.87;;
24637;SDS011;12773;50.162;8.548;2023-02-28T15:40:28;7.40;;;4.53;;
24637;SDS011;12773;50.162;8.548;2023-02-28T15:43:18;8.83;;;4.95;;
24637;SDS011;12773;50.162;8.548;2023-02-28T15:46:12;7.20;;;4.67;;
24637;SDS011;12773;50.162;8.548;2023-02-28T15:49:01;7.62;;;4.90;;
24637;SDS011;12773;50.162;8.548;2023-02-28T15:51:49;8.48;;;4.53;;
24637;SDS011;12773;50.162;8.548;2023-02-28T15:54:39;8.05;;;5.17;;
24637;SDS011;12773;50.162;8.548;2023-02-28T15:57:28;8.30;;;4.80;;
24637;SDS011;12773;50.162;8.548;2023-02-28T16:00:18;8.63;;;5.42;;
24637;SDS011;12773;50.162;8.548;2023-02-28T16:03:33;7.15;;;4.65;;
24637;SDS011;12773;50.162;8.548;2023-02-28T16:06:36;9.00;;;5.17;;
24637;SDS011;12773;50.162;8.548;2023-02-28T16:09:08;9.03;;;4.80;;
24637;SDS011;12773;50.162;8.548;2023-02-28T16:12:00;13.25;;;5.37;;
24637;SDS011;12773;50.162;8.548;2023-02-28T16:14:50;9.23;;;5.40;;
24637;SDS011;12773;50.162;8.548;2023-02-28T16:17:39;10.25;;;5.37;;
24637;SDS011;12773;50.162;8.548;2023-02-28T16:20:28;9.28;;;5.22;;
24637;SDS011;12773;50.162;8.548;2023-02-28T16:23:16;11.48;;;6.33;;
24637;SDS011;12773;50.162;8.548;2023-02-28T16:26:04;9.95;;;5.40;;
24637;SDS011;12773;50.162;8.548;2023-02-28T16:28:52;12.60;;;5.65;;
24637;SDS011;12773;50.162;8.548;2023-02-28T16:31:40;11.88;;;5.87;;
24637;SDS011;12773;50.162;8.548;2023-02-28T16:34:28;14.43;;;5.83;;
24637;SDS011;12773;50.162;8.548;2023-02-28T16:37:16;10.45;;;5.87;;
24637;SDS011;12773;50.162;8.548;2023-02-28T16:40:04;8.48;;;5.35;;
24637;SDS011;12773;50.162;8.548;2023-02-28T16:42:54;9.73;;;5.40;;
24637;SDS011;12773;50.162;8.548;2023-02-28T16:45:44;12.58;;;6.55;;
24637;SDS011;12773;50.162;8.548;2023-02-28T16:48:32;14.28;;;5.20;;
24637;SDS011;12773;50.162;8.548;2023-02-28T16:51:19;9.40;;;5.15;;
24637;SDS011;12773;50.162;8.548;2023-02-28T16:54:06;9.53;;;5.47;;
24637;SDS011;12773;50.162;8.548;2023-02-28T16:56:54;9.28;;;5.55;;
24637;SDS011;12773;50.162;8.548;2023-02-28T16:59:41;9.88;;;5.47;;
24637;SDS011;12773;50.162;8.548;2023-02-28T17:02:29;11.08;;;5.65;;
24637;SDS011;12773;50.162;8.548;2023-02-28T17:05:17;9.13;;;5.60;;
24637;SDS011;12773;50.162;8.548;2023-02-28T17:08:04;9.68;;;5.55;;
24637;SDS011;12773;50.162;8.548;2023-02-28T17:10:51;11.33;;;5.35;;
24637;SDS011;12773;50.162;8.548;2023-02-28T17:13:38;11.28;;;5.42;;
24637;SDS011;12773;50.162;8.548;2023-02-28T17:16:29;9.83;;;5.78;;
24637;SDS011;12773;50.162;8.548;2023-02-28T17:19:18;13.00;;;5.75;;
24637;SDS011;12773;50.162;8.548;2023-02-28T17:22:07;9.85;;;5.25;;
24637;SDS011;12773;50.162;8.548;2023-02-28T17:24:54;9.43;;;5.58;;
24637;SDS011;12773;50.162;8.548;2023-02-28T17:27:43;8.93;;;5.50;;
24637;SDS011;12773;50.162;8.548;2023-02-28T17:30:32;13.10;;;5.45;;
24637;SDS011;12773;50.162;8.548;2023-02-28T17:33:20;10.85;;;5.20;;
24637;SDS011;12773;50.162;8.548;2023-02-28T17:36:13;9.58;;;5.05;;
24637;SDS011;12773;50.162;8.548;2023-02-28T17:39:00;8.78;;;5.25;;
24637;SDS011;12773;50.162;8.548;2023-02-28T17:41:48;9.98;;;5.67;;
24637;SDS011;12773;50.162;8.548;2023-02-28T17:44:37;9.98;;;4.85;;
24637;SDS011;12773;50.162;8.548;2023-02-28T17:47:24;15.98;;;7.65;;
24637;SDS011;12773;50.162;8.548;2023-02-28T17:50:15;9.45;;;6.03;;
24637;SDS011;12773;50.162;8.548;2023-02-28T17:53:05;8.25;;;5.00;;
24637;SDS011;12773;50.162;8.548;2023-02-28T17:55:52;10.40;;;5.80;;
24637;SDS011;12773;50.162;8.548;2023-02-28T17:58:39;9.83;;;5.20;;
24637;SDS011;12773;50.162;8.548;2023-02-28T18:01:27;8.60;;;5.17;;
24637;SDS011;12773;50.162;8.548;2023-02-28T18:04:14;10.78;;;5.37;;
24637;SDS011;12773;50.162;8.548;2023-02-28T18:07:02;8.88;;;5.12;;
24637;SDS011;12773;50.162;8.548;2023-02-28T18:09:49;12.30;;;5.72;;
24637;SDS011;12773;50.162;8.548;2023-02-28T18:12:37;10.85;;;5.42;;
24637;SDS011;12773;50.162;8.548;2023-02-28T18:15:24;9.98;;;5.25;;
24637;SDS011;12773;50.162;8.548;2023-02-28T18:18:12;10.32;;;4.97;;
24637;SDS011;12773;50.162;8.548;2023-02-28T18:21:01;9.23;;;5.42;;
24637;SDS011;12773;50.162;8.548;2023-02-28T18:23:51;8.70;;;5.28;;
24637;SDS011;12773;50.162;8.548;2023-02-28T18:26:38;10.20;;;5.22;;
24637;SDS011;12773;50.162;8.548;2023-02-28T18:29:26;8.83;;;5.30;;
24637;SDS011;12773;50.162;8.548;2023-02-28T18:32:14;15.78;;;5.65;;
24637;SDS011;12773;50.162;8.548;2023-02-28T18:35:02;9.88;;;5.47;;
24637;SDS011;12773;50.162;8.548;2023-02-28T18:37:49;10.53;;;5.00;;
24637;SDS011;12773;50.162;8.548;2023-02-28T18:40:37;11.38;;;5.85;;
24637;SDS011;12773;50.162;8.548;2023-02-28T18:43:25;10.00;;;5.53;;
24637;SDS011;12773;50.162;8.548;2023-02-28T18:46:14;12.35;;;5.72;;
24637;SDS011;12773;50.162;8.548;2023-02-28T18:49:02;12.15;;;5.53;;
24637;SDS011;12773;50.162;8.548;2023-02-28T18:51:50;8.85;;;5.33;;
24637;SDS011;12773;50.162;8.548;2023-02-28T18:54:39;12.40;;;5.83;;
24637;SDS011;12773;50.162;8.548;2023-02-28T18:57:27;9.90;;;5.90;;
24637;SDS011;12773;50.162;8.548;2023-02-28T19:00:14;14.68;;;6.33;;
24637;SDS011;12773;50.162;8.548;2023-02-28T19:03:07;13.43;;;5.53;;